sensor_id;sensor_type;location;lat;lon;timestamp;P1;durP1;ratioP1;P2;durP2;ratioP2
23230;SDS011;11784;49.818;8.632;2023-06-14T00:00:13;3.90;;;1.52;;
23230;SDS011;11784;49.818;8.632;2023-06-14T00:02:39;2.20;;;1.08;;
23230;SDS011;11784;49.818;8.632;2023-06-14T00:05:06;6.45;;;2.20;;
23230;SDS011;11784;49.818;8.632;2023-06-14T00:07:36;2.67;;;1.50;;
23230;SDS011;11784;49.818;8.632;2023-06-14T00:12:29;2.40;;;1.45;;
23230;SDS011;11784;49.818;8.632;2023-06-14T00:14:56;2.35;;;1.42;;
23230;SDS011;11784;49.818;8.632;2023-06-14T00:17:22;2.70;;;1.20;;
23230;SDS011;11784;49.818;8.632;2023-06-14T00:19:47;2.20;;;1.63;;
23230;SDS011;11784;49.818;8.632;2023-06-14T00:22:13;4.30;;;1.80;;
23230;SDS011;11784;49.818;8.632;2023-06-14T00:24:38;2.72;;;1.38;;
23230;SDS011;11784;49.818;8.632;2023-06-14T00:27:04;4.78;;;1.58;;
23230;SDS011;11784;49.818;8.632;2023-06-14T00:29:30;5.20;;;1.23;;
23230;SDS011;11784;49.818;8.632;2023-06-14T00:31:56;2.13;;;1.17;;
23230;SDS011;11784;49.818;8.632;2023-06-14T00:34:21;6.32;;;1.58;;
23230;SDS011;11784;49.818;8.632;2023-06-14T00:36:47;3.03;;;1.58;;
23230;SDS011;11784;49.818;8.632;2023-06-14T00:39:12;2.60;;;1.33;;
23230;SDS011;11784;49.818;8.632;2023-06-14T00:44:04;2.60;;;1.35;;
23230;SDS011;11784;49.818;8.632;2023-06-14T00:46:30;2.17;;;1.50;;
23230;SDS011;11784;49.818;8.632;2023-06-14T00:48:56;3.10;;;1.75;;
23230;SDS011;11784;49.818;8.632;2023-06-14T00:51:23;2.67;;;1.50;;
23230;SDS011;11784;49.818;8.632;2023-06-14T00:53:49;3.03;;;1.52;;
23230;SDS011;11784;49.818;8.632;2023-06-14T00:56:15;1.17;;;1.05;;
23230;SDS011;11784;49.818;8.632;2023-06-14T00:58:41;3.58;;;1.80;;
23230;SDS011;11784;49.818;8.632;2023-06-14T01:01:08;2.28;;;1.17;;
23230;SDS011;11784;49.818;8.632;2023-06-14T01:03:33;1.80;;;1.25;;
23230;SDS011;11784;49.818;8.632;2023-06-14T01:06:01;3.30;;;1.77;;
23230;SDS011;11784;49.818;8.632;2023-06-14T01:11:18;2.78;;;1.45;;
23230;SDS011;11784;49.818;8.632;2023-06-14T01:13:52;5.35;;;1.10;;
23230;SDS011;11784;49.818;8.632;2023-06-14T01:16:18;3.67;;;1.67;;
23230;SDS011;11784;49.818;8.632;2023-06-14T01:18:44;2.55;;;1.30;;
23230;SDS011;11784;49.818;8.632;2023-06-14T01:21:25;1.80;;;1.17;;
23230;SDS011;11784;49.818;8.632;2023-06-14T01:23:53;3.22;;;1.58;;
23230;SDS011;11784;49.818;8.632;2023-06-14T01:26:20;4.18;;;1.20;;
23230;SDS011;11784;49.818;8.632;2023-06-14T01:28:47;2.42;;;1.50;;
23230;SDS011;11784;49.818;8.632;2023-06-14T01:31:16;2.42;;;1.38;;
23230;SDS011;11784;49.818;8.632;2023-06-14T01:33:46;3.05;;;1.45;;
23230;SDS011;11784;49.818;8.632;2023-06-14T01:36:14;5.07;;;1.90;;
23230;SDS011;11784;49.818;8.632;2023-06-14T01:38:41;2.45;;;1.55;;
23230;SDS011;11784;49.818;8.632;2023-06-14T01:41:09;3.45;;;1.88;;
23230;SDS011;11784;49.818;8.632;2023-06-14T01:43:35;3.13;;;1.42;;
23230;SDS011;11784;49.818;8.632;2023-06-14T01:46:03;6.63;;;1.88;;
23230;SDS011;11784;49.818;8.632;2023-06-14T01:48:30;2.95;;;1.55;;
23230;SDS011;11784;49.818;8.632;2023-06-14T01:50:57;2.25;;;1.35;;
23230;SDS011;11784;49.818;8.632;2023-06-14T01:53:22;3.65;;;1.55;;
23230;SDS011;11784;49.818;8.632;2023-06-14T01:55:48;2.35;;;1.50;;
23230;SDS011;11784;49.818;8.632;2023-06-14T01:58:13;2.75;;;1.55;;
23230;SDS011;11784;49.818;8.632;2023-06-14T02:00:41;3.80;;;1.70;;
23230;SDS011;11784;49.818;8.632;2023-06-14T02:03:08;3.72;;;1.80;;
23230;SDS011;11784;49.818;8.632;2023-06-14T02:05:34;3.60;;;1.50;;
23230;SDS011;11784;49.818;8.632;2023-06-14T02:07:59;6.43;;;2.13;;
23230;SDS011;11784;49.818;8.632;2023-06-14T02:10:25;5.15;;;1.90;;
23230;SDS011;11784;49.818;8.632;2023-06-14T02:12:51;6.60;;;1.83;;
23230;SDS011;11784;49.818;8.632;2023-06-14T02:15:16;4.45;;;1.83;;
23230;SDS011;11784;49.818;8.632;2023-06-14T02:17:43;2.22;;;1.60;;
23230;SDS011;11784;49.818;8.632;2023-06-14T02:20:09;2.60;;;1.80;;
23230;SDS011;11784;49.818;8.632;2023-06-14T02:22:35;3.13;;;1.70;;
23230;SDS011;11784;49.818;8.632;2023-06-14T02:25:01;3.65;;;1.98;;
23230;SDS011;11784;49.818;8.632;2023-06-14T02:27:26;2.95;;;1.73;;
23230;SDS011;11784;49.818;8.632;2023-06-14T02:29:52;3.10;;;1.83;;
23230;SDS011;11784;49.818;8.632;2023-06-14T02:32:17;4.53;;;2.05;;
23230;SDS011;11784;49.818;8.632;2023-06-14T02:34:43;2.00;;;1.23;;
23230;SDS011;11784;49.818;8.632;2023-06-14T02:37:08;3.95;;;2.00;;
23230;SDS011;11784;49.818;8.632;2023-06-14T02:39:34;2.42;;;1.73;;
23230;SDS011;11784;49.818;8.632;2023-06-14T02:42:00;2.75;;;1.83;;
23230;SDS011;11784;49.818;8.632;2023-06-14T02:44:26;2.33;;;1.30;;
23230;SDS011;11784;49.818;8.632;2023-06-14T02:46:53;4.32;;;1.77;;
23230;SDS011;11784;49.818;8.632;2023-06-14T02:49:20;2.70;;;1.27;;
23230;SDS011;11784;49.818;8.632;2023-06-14T02:51:46;4.20;;;1.90;;
23230;SDS011;11784;49.818;8.632;2023-06-14T02:54:12;2.83;;;1.80;;
23230;SDS011;11784;49.818;8.632;2023-06-14T02:56:37;3.25;;;1.90;;
23230;SDS011;11784;49.818;8.632;2023-06-14T02:59:03;2.55;;;1.65;;
23230;SDS011;11784;49.818;8.632;2023-06-14T03:01:28;3.47;;;1.73;;
23230;SDS011;11784;49.818;8.632;2023-06-14T03:03:59;4.10;;;1.67;;
23230;SDS011;11784;49.818;8.632;2023-06-14T03:06:26;2.47;;;1.42;;
23230;SDS011;11784;49.818;8.632;2023-06-14T03:08:54;4.18;;;1.45;;
23230;SDS011;11784;49.818;8.632;2023-06-14T03:11:24;3.10;;;1.60;;
23230;SDS011;11784;49.818;8.632;2023-06-14T03:13:50;2.17;;;1.23;;
23230;SDS011;11784;49.818;8.632;2023-06-14T03:16:16;4.60;;;1.70;;
23230;SDS011;11784;49.818;8.632;2023-06-14T03:18:44;3.88;;;1.75;;
23230;SDS011;11784;49.818;8.632;2023-06-14T03:21:10;3.42;;;1.30;;
23230;SDS011;11784;49.818;8.632;2023-06-14T03:23:36;2.97;;;1.60;;
23230;SDS011;11784;49.818;8.632;2023-06-14T03:26:01;4.00;;;1.85;;
23230;SDS011;11784;49.818;8.632;2023-06-14T03:28:27;2.63;;;1.60;;
23230;SDS011;11784;49.818;8.632;2023-06-14T03:30:52;2.72;;;1.50;;
23230;SDS011;11784;49.818;8.632;2023-06-14T03:33:18;3.88;;;1.73;;
23230;SDS011;11784;49.818;8.632;2023-06-14T03:35:44;3.55;;;1.40;;
23230;SDS011;11784;49.818;8.632;2023-06-14T03:38:09;2.25;;;1.70;;
23230;SDS011;11784;49.818;8.632;2023-06-14T03:40:35;3.17;;;1.67;;
23230;SDS011;11784;49.818;8.632;2023-06-14T03:43:00;2.70;;;1.40;;
23230;SDS011;11784;49.818;8.632;2023-06-14T03:45:26;4.18;;;2.22;;
23230;SDS011;11784;49.818;8.632;2023-06-14T03:47:51;5.22;;;1.73;;
23230;SDS011;11784;49.818;8.632;2023-06-14T03:50:17;3.00;;;1.50;;
23230;SDS011;11784;49.818;8.632;2023-06-14T03:52:43;7.47;;;1.75;;
23230;SDS011;11784;49.818;8.632;2023-06-14T03:55:09;2.97;;;1.52;;
23230;SDS011;11784;49.818;8.632;2023-06-14T03:57:36;3.50;;;1.70;;
23230;SDS011;11784;49.818;8.632;2023-06-14T04:00:01;2.53;;;1.50;;
23230;SDS011;11784;49.818;8.632;2023-06-14T04:02:30;2.88;;;1.70;;
23230;SDS011;11784;49.818;8.632;2023-06-14T04:04:56;3.25;;;1.95;;
23230;SDS011;11784;49.818;8.632;2023-06-14T04:07:21;4.72;;;1.73;;
23230;SDS011;11784;49.818;8.632;2023-06-14T04:09:48;3.63;;;1.92;;
23230;SDS011;11784;49.818;8.632;2023-06-14T04:12:13;4.82;;;1.95;;
23230;SDS011;11784;49.818;8.632;2023-06-14T04:14:39;3.17;;;1.52;;
23230;SDS011;11784;49.818;8.632;2023-06-14T04:17:05;2.45;;;1.73;;
23230;SDS011;11784;49.818;8.632;2023-06-14T04:19:31;2.67;;;1.45;;
23230;SDS011;11784;49.818;8.632;2023-06-14T04:21:57;2.17;;;1.58;;
23230;SDS011;11784;49.818;8.632;2023-06-14T04:24:26;2.90;;;1.75;;
23230;SDS011;11784;49.818;8.632;2023-06-14T04:26:56;7.55;;;1.80;;
23230;SDS011;11784;49.818;8.632;2023-06-14T04:29:26;4.32;;;1.52;;
23230;SDS011;11784;49.818;8.632;2023-06-14T04:31:51;3.88;;;1.50;;
23230;SDS011;11784;49.818;8.632;2023-06-14T04:34:19;1.90;;;1.15;;
23230;SDS011;11784;49.818;8.632;2023-06-14T04:36:46;4.20;;;1.45;;
23230;SDS011;11784;49.818;8.632;2023-06-14T04:39:21;2.97;;;1.75;;
23230;SDS011;11784;49.818;8.632;2023-06-14T04:41:47;2.33;;;1.33;;
23230;SDS011;11784;49.818;8.632;2023-06-14T04:44:17;4.55;;;1.65;;
23230;SDS011;11784;49.818;8.632;2023-06-14T04:46:44;4.82;;;1.85;;
23230;SDS011;11784;49.818;8.632;2023-06-14T04:49:13;2.83;;;1.80;;
23230;SDS011;11784;49.818;8.632;2023-06-14T04:51:42;2.70;;;1.45;;
23230;SDS011;11784;49.818;8.632;2023-06-14T04:54:09;3.40;;;1.42;;
23230;SDS011;11784;49.818;8.632;2023-06-14T04:56:38;4.75;;;1.40;;
23230;SDS011;11784;49.818;8.632;2023-06-14T04:59:03;3.28;;;1.63;;
23230;SDS011;11784;49.818;8.632;2023-06-14T05:01:32;3.13;;;1.60;;
23230;SDS011;11784;49.818;8.632;2023-06-14T05:03:58;2.50;;;1.55;;
23230;SDS011;11784;49.818;8.632;2023-06-14T05:06:24;3.00;;;1.52;;
23230;SDS011;11784;49.818;8.632;2023-06-14T05:08:49;3.63;;;1.70;;
23230;SDS011;11784;49.818;8.632;2023-06-14T05:11:15;4.00;;;1.75;;
23230;SDS011;11784;49.818;8.632;2023-06-14T05:13:42;2.88;;;1.30;;
23230;SDS011;11784;49.818;8.632;2023-06-14T05:16:08;4.60;;;1.42;;
23230;SDS011;11784;49.818;8.632;2023-06-14T05:18:34;2.40;;;1.42;;
23230;SDS011;11784;49.818;8.632;2023-06-14T05:21:00;2.45;;;1.45;;
23230;SDS011;11784;49.818;8.632;2023-06-14T05:23:26;3.80;;;1.60;;
23230;SDS011;11784;49.818;8.632;2023-06-14T05:25:51;6.03;;;2.15;;
23230;SDS011;11784;49.818;8.632;2023-06-14T05:28:17;2.55;;;1.55;;
23230;SDS011;11784;49.818;8.632;2023-06-14T05:30:43;3.22;;;1.50;;
23230;SDS011;11784;49.818;8.632;2023-06-14T05:33:08;2.47;;;1.00;;
23230;SDS011;11784;49.818;8.632;2023-06-14T05:35:34;2.55;;;1.30;;
23230;SDS011;11784;49.818;8.632;2023-06-14T05:37:59;4.55;;;1.30;;
23230;SDS011;11784;49.818;8.632;2023-06-14T05:40:25;2.13;;;1.10;;
23230;SDS011;11784;49.818;8.632;2023-06-14T05:42:50;2.63;;;1.50;;
23230;SDS011;11784;49.818;8.632;2023-06-14T05:45:16;7.50;;;1.95;;
23230;SDS011;11784;49.818;8.632;2023-06-14T05:47:42;2.85;;;1.50;;
23230;SDS011;11784;49.818;8.632;2023-06-14T05:50:07;2.50;;;1.40;;
23230;SDS011;11784;49.818;8.632;2023-06-14T05:52:34;2.42;;;1.25;;
23230;SDS011;11784;49.818;8.632;2023-06-14T05:55:00;2.40;;;1.60;;
23230;SDS011;11784;49.818;8.632;2023-06-14T05:57:26;3.80;;;1.42;;
23230;SDS011;11784;49.818;8.632;2023-06-14T05:59:51;4.63;;;1.88;;
23230;SDS011;11784;49.818;8.632;2023-06-14T06:02:17;4.20;;;1.35;;
23230;SDS011;11784;49.818;8.632;2023-06-14T06:04:43;3.17;;;1.33;;
23230;SDS011;11784;49.818;8.632;2023-06-14T06:07:08;2.70;;;1.42;;
23230;SDS011;11784;49.818;8.632;2023-06-14T06:09:33;2.20;;;1.40;;
23230;SDS011;11784;49.818;8.632;2023-06-14T06:11:59;8.30;;;2.58;;
23230;SDS011;11784;49.818;8.632;2023-06-14T06:14:25;1.65;;;1.02;;
23230;SDS011;11784;49.818;8.632;2023-06-14T06:16:50;3.17;;;1.30;;
23230;SDS011;11784;49.818;8.632;2023-06-14T06:19:17;4.13;;;1.45;;
23230;SDS011;11784;49.818;8.632;2023-06-14T06:21:43;9.50;;;1.52;;
23230;SDS011;11784;49.818;8.632;2023-06-14T06:24:08;2.78;;;1.40;;
23230;SDS011;11784;49.818;8.632;2023-06-14T06:26:34;3.25;;;1.60;;
23230;SDS011;11784;49.818;8.632;2023-06-14T06:28:59;2.88;;;1.10;;
23230;SDS011;11784;49.818;8.632;2023-06-14T06:31:25;2.05;;;1.02;;
23230;SDS011;11784;49.818;8.632;2023-06-14T06:33:52;2.88;;;1.25;;
23230;SDS011;11784;49.818;8.632;2023-06-14T06:36:19;2.85;;;1.42;;
23230;SDS011;11784;49.818;8.632;2023-06-14T06:38:45;3.47;;;1.63;;
23230;SDS011;11784;49.818;8.632;2023-06-14T06:41:11;1.98;;;1.10;;
23230;SDS011;11784;49.818;8.632;2023-06-14T06:43:36;2.83;;;1.55;;
23230;SDS011;11784;49.818;8.632;2023-06-14T06:46:02;2.42;;;1.65;;
23230;SDS011;11784;49.818;8.632;2023-06-14T06:48:27;4.55;;;1.95;;
23230;SDS011;11784;49.818;8.632;2023-06-14T06:50:53;2.50;;;1.58;;
23230;SDS011;11784;49.818;8.632;2023-06-14T06:53:18;3.03;;;1.40;;
23230;SDS011;11784;49.818;8.632;2023-06-14T06:55:44;2.00;;;1.10;;
23230;SDS011;11784;49.818;8.632;2023-06-14T06:58:09;1.90;;;1.30;;
23230;SDS011;11784;49.818;8.632;2023-06-14T07:00:36;3.55;;;2.15;;
23230;SDS011;11784;49.818;8.632;2023-06-14T07:03:01;1.75;;;1.10;;
23230;SDS011;11784;49.818;8.632;2023-06-14T07:05:29;3.03;;;1.42;;
23230;SDS011;11784;49.818;8.632;2023-06-14T07:07:54;2.53;;;1.40;;
23230;SDS011;11784;49.818;8.632;2023-06-14T07:10:20;2.55;;;1.30;;
23230;SDS011;11784;49.818;8.632;2023-06-14T07:12:45;2.13;;;1.20;;
23230;SDS011;11784;49.818;8.632;2023-06-14T07:15:11;3.92;;;1.77;;
23230;SDS011;11784;49.818;8.632;2023-06-14T07:17:36;3.17;;;1.42;;
23230;SDS011;11784;49.818;8.632;2023-06-14T07:20:02;2.55;;;1.08;;
23230;SDS011;11784;49.818;8.632;2023-06-14T07:22:33;3.33;;;1.52;;
23230;SDS011;11784;49.818;8.632;2023-06-14T07:24:59;2.70;;;1.38;;
23230;SDS011;11784;49.818;8.632;2023-06-14T07:27:25;2.75;;;1.10;;
23230;SDS011;11784;49.818;8.632;2023-06-14T07:29:50;3.17;;;1.70;;
23230;SDS011;11784;49.818;8.632;2023-06-14T07:32:16;2.35;;;1.40;;
23230;SDS011;11784;49.818;8.632;2023-06-14T07:34:41;3.30;;;1.70;;
23230;SDS011;11784;49.818;8.632;2023-06-14T07:37:07;1.83;;;1.58;;
23230;SDS011;11784;49.818;8.632;2023-06-14T07:39:32;2.17;;;1.20;;
23230;SDS011;11784;49.818;8.632;2023-06-14T07:41:58;1.73;;;1.20;;
23230;SDS011;11784;49.818;8.632;2023-06-14T07:44:23;1.98;;;1.20;;
23230;SDS011;11784;49.818;8.632;2023-06-14T07:46:49;2.40;;;1.13;;
23230;SDS011;11784;49.818;8.632;2023-06-14T07:49:14;2.13;;;1.35;;
23230;SDS011;11784;49.818;8.632;2023-06-14T07:51:40;1.55;;;0.80;;
23230;SDS011;11784;49.818;8.632;2023-06-14T07:54:06;5.22;;;0.90;;
23230;SDS011;11784;49.818;8.632;2023-06-14T07:56:33;1.63;;;1.02;;
23230;SDS011;11784;49.818;8.632;2023-06-14T07:58:59;1.83;;;1.00;;
23230;SDS011;11784;49.818;8.632;2023-06-14T08:01:24;1.55;;;1.00;;
23230;SDS011;11784;49.818;8.632;2023-06-14T08:03:50;3.92;;;1.48;;
23230;SDS011;11784;49.818;8.632;2023-06-14T08:06:16;6.75;;;1.75;;
23230;SDS011;11784;49.818;8.632;2023-06-14T08:08:41;1.17;;;0.80;;
23230;SDS011;11784;49.818;8.632;2023-06-14T08:11:07;2.22;;;1.17;;
23230;SDS011;11784;49.818;8.632;2023-06-14T08:13:32;2.25;;;1.27;;
23230;SDS011;11784;49.818;8.632;2023-06-14T08:15:58;2.70;;;1.48;;
23230;SDS011;11784;49.818;8.632;2023-06-14T08:18:25;1.75;;;0.88;;
23230;SDS011;11784;49.818;8.632;2023-06-14T08:20:51;1.30;;;0.75;;
23230;SDS011;11784;49.818;8.632;2023-06-14T08:23:17;1.15;;;0.82;;
23230;SDS011;11784;49.818;8.632;2023-06-14T08:25:44;3.35;;;1.25;;
23230;SDS011;11784;49.818;8.632;2023-06-14T08:28:10;2.83;;;1.33;;
23230;SDS011;11784;49.818;8.632;2023-06-14T08:30:35;2.35;;;1.00;;
23230;SDS011;11784;49.818;8.632;2023-06-14T08:33:01;1.65;;;1.00;;
23230;SDS011;11784;49.818;8.632;2023-06-14T08:35:26;1.45;;;0.90;;
23230;SDS011;11784;49.818;8.632;2023-06-14T08:37:52;2.28;;;1.30;;
23230;SDS011;11784;49.818;8.632;2023-06-14T08:40:19;0.82;;;0.50;;
23230;SDS011;11784;49.818;8.632;2023-06-14T08:42:55;2.15;;;0.90;;
23230;SDS011;11784;49.818;8.632;2023-06-14T08:45:22;4.45;;;0.80;;
23230;SDS011;11784;49.818;8.632;2023-06-14T08:47:48;2.88;;;1.00;;
23230;SDS011;11784;49.818;8.632;2023-06-14T08:50:22;1.25;;;0.80;;
23230;SDS011;11784;49.818;8.632;2023-06-14T08:52:51;1.85;;;0.82;;
23230;SDS011;11784;49.818;8.632;2023-06-14T08:55:22;0.80;;;0.70;;
23230;SDS011;11784;49.818;8.632;2023-06-14T08:57:52;0.80;;;0.60;;
23230;SDS011;11784;49.818;8.632;2023-06-14T09:00:19;1.67;;;0.73;;
23230;SDS011;11784;49.818;8.632;2023-06-14T09:02:46;1.65;;;1.02;;
23230;SDS011;11784;49.818;8.632;2023-06-14T09:05:12;2.53;;;1.33;;
23230;SDS011;11784;49.818;8.632;2023-06-14T09:07:38;1.08;;;0.80;;
23230;SDS011;11784;49.818;8.632;2023-06-14T09:10:14;1.30;;;0.65;;
23230;SDS011;11784;49.818;8.632;2023-06-14T09:12:40;1.92;;;0.82;;
23230;SDS011;11784;49.818;8.632;2023-06-14T09:15:07;1.27;;;0.90;;
23230;SDS011;11784;49.818;8.632;2023-06-14T09:17:34;2.00;;;0.65;;
23230;SDS011;11784;49.818;8.632;2023-06-14T09:20:00;1.60;;;0.80;;
23230;SDS011;11784;49.818;8.632;2023-06-14T09:22:42;1.10;;;0.73;;
23230;SDS011;11784;49.818;8.632;2023-06-14T09:25:08;4.07;;;0.98;;
23230;SDS011;11784;49.818;8.632;2023-06-14T09:27:34;1.73;;;0.80;;
23230;SDS011;11784;49.818;8.632;2023-06-14T09:30:01;1.55;;;0.60;;
23230;SDS011;11784;49.818;8.632;2023-06-14T09:32:28;1.90;;;0.95;;
23230;SDS011;11784;49.818;8.632;2023-06-14T09:34:53;0.68;;;0.63;;
23230;SDS011;11784;49.818;8.632;2023-06-14T09:37:29;1.45;;;0.98;;
23230;SDS011;11784;49.818;8.632;2023-06-14T09:39:56;1.10;;;0.75;;
23230;SDS011;11784;49.818;8.632;2023-06-14T09:42:22;1.38;;;0.60;;
23230;SDS011;11784;49.818;8.632;2023-06-14T09:44:50;0.68;;;0.50;;
23230;SDS011;11784;49.818;8.632;2023-06-14T09:47:17;1.33;;;0.80;;
23230;SDS011;11784;49.818;8.632;2023-06-14T09:49:43;1.00;;;0.50;;
23230;SDS011;11784;49.818;8.632;2023-06-14T09:52:19;1.30;;;0.80;;
23230;SDS011;11784;49.818;8.632;2023-06-14T09:54:46;1.23;;;0.65;;
23230;SDS011;11784;49.818;8.632;2023-06-14T09:57:16;1.45;;;0.80;;
23230;SDS011;11784;49.818;8.632;2023-06-14T09:59:46;1.30;;;0.55;;
23230;SDS011;11784;49.818;8.632;2023-06-14T10:02:24;1.58;;;0.65;;
23230;SDS011;11784;49.818;8.632;2023-06-14T10:04:58;3.05;;;1.30;;
23230;SDS011;11784;49.818;8.632;2023-06-14T10:07:35;1.13;;;0.60;;
23230;SDS011;11784;49.818;8.632;2023-06-14T10:10:05;1.20;;;0.60;;
23230;SDS011;11784;49.818;8.632;2023-06-14T10:12:32;1.58;;;0.63;;
23230;SDS011;11784;49.818;8.632;2023-06-14T10:14:58;0.63;;;0.55;;
23230;SDS011;11784;49.818;8.632;2023-06-14T10:17:27;1.77;;;0.73;;
23230;SDS011;11784;49.818;8.632;2023-06-14T10:20:25;0.50;;;0.50;;
23230;SDS011;11784;49.818;8.632;2023-06-14T10:23:00;0.70;;;0.50;;
23230;SDS011;11784;49.818;8.632;2023-06-14T10:25:33;1.00;;;0.70;;
23230;SDS011;11784;49.818;8.632;2023-06-14T10:28:17;0.63;;;0.47;;
23230;SDS011;11784;49.818;8.632;2023-06-14T10:33:38;1.42;;;0.77;;
23230;SDS011;11784;49.818;8.632;2023-06-14T10:36:37;1.52;;;0.85;;
23230;SDS011;11784;49.818;8.632;2023-06-14T10:41:38;0.80;;;0.70;;
23230;SDS011;11784;49.818;8.632;2023-06-14T10:46:40;1.00;;;0.60;;
23230;SDS011;11784;49.818;8.632;2023-06-14T10:49:10;0.95;;;0.50;;
23230;SDS011;11784;49.818;8.632;2023-06-14T10:51:40;1.05;;;0.50;;
23230;SDS011;11784;49.818;8.632;2023-06-14T10:54:14;2.55;;;0.90;;
23230;SDS011;11784;49.818;8.632;2023-06-14T10:56:51;1.90;;;0.77;;
23230;SDS011;11784;49.818;8.632;2023-06-14T10:59:17;2.05;;;0.80;;
23230;SDS011;11784;49.818;8.632;2023-06-14T11:04:23;0.98;;;0.63;;
23230;SDS011;11784;49.818;8.632;2023-06-14T11:07:44;1.55;;;0.70;;
23230;SDS011;11784;49.818;8.632;2023-06-14T11:10:31;0.45;;;0.40;;
23230;SDS011;11784;49.818;8.632;2023-06-14T11:13:02;0.52;;;0.40;;
23230;SDS011;11784;49.818;8.632;2023-06-14T11:15:31;1.90;;;1.10;;
23230;SDS011;11784;49.818;8.632;2023-06-14T11:18:06;3.45;;;0.90;;
23230;SDS011;11784;49.818;8.632;2023-06-14T11:20:34;1.00;;;0.70;;
23230;SDS011;11784;49.818;8.632;2023-06-14T11:23:01;1.45;;;0.88;;
23230;SDS011;11784;49.818;8.632;2023-06-14T11:25:28;1.55;;;0.90;;
23230;SDS011;11784;49.818;8.632;2023-06-14T11:27:54;0.73;;;0.60;;
23230;SDS011;11784;49.818;8.632;2023-06-14T11:30:20;1.20;;;0.88;;
23230;SDS011;11784;49.818;8.632;2023-06-14T11:32:47;2.03;;;0.63;;
23230;SDS011;11784;49.818;8.632;2023-06-14T11:35:13;0.82;;;0.60;;
23230;SDS011;11784;49.818;8.632;2023-06-14T11:37:39;1.50;;;0.95;;
23230;SDS011;11784;49.818;8.632;2023-06-14T11:40:07;1.35;;;0.77;;
23230;SDS011;11784;49.818;8.632;2023-06-14T11:42:34;1.13;;;0.60;;
23230;SDS011;11784;49.818;8.632;2023-06-14T11:45:01;1.85;;;0.88;;
23230;SDS011;11784;49.818;8.632;2023-06-14T11:47:46;5.80;;;0.95;;
23230;SDS011;11784;49.818;8.632;2023-06-14T11:50:11;1.45;;;0.70;;
23230;SDS011;11784;49.818;8.632;2023-06-14T11:52:37;1.02;;;0.63;;
23230;SDS011;11784;49.818;8.632;2023-06-14T11:55:03;1.70;;;0.80;;
23230;SDS011;11784;49.818;8.632;2023-06-14T11:57:35;1.25;;;0.60;;
23230;SDS011;11784;49.818;8.632;2023-06-14T12:00:04;1.23;;;1.02;;
23230;SDS011;11784;49.818;8.632;2023-06-14T12:02:40;0.90;;;0.73;;
23230;SDS011;11784;49.818;8.632;2023-06-14T12:05:06;1.08;;;0.80;;
23230;SDS011;11784;49.818;8.632;2023-06-14T12:07:34;1.20;;;0.98;;
23230;SDS011;11784;49.818;8.632;2023-06-14T12:12:27;2.17;;;0.90;;
23230;SDS011;11784;49.818;8.632;2023-06-14T12:14:55;2.30;;;0.75;;
23230;SDS011;11784;49.818;8.632;2023-06-14T12:17:21;1.55;;;0.88;;
23230;SDS011;11784;49.818;8.632;2023-06-14T12:19:46;1.73;;;0.88;;
23230;SDS011;11784;49.818;8.632;2023-06-14T12:22:14;2.92;;;1.08;;
23230;SDS011;11784;49.818;8.632;2023-06-14T12:24:43;1.80;;;0.98;;
23230;SDS011;11784;49.818;8.632;2023-06-14T12:27:09;2.00;;;0.90;;
23230;SDS011;11784;49.818;8.632;2023-06-14T12:29:40;1.10;;;0.88;;
23230;SDS011;11784;49.818;8.632;2023-06-14T12:32:08;3.58;;;0.90;;
23230;SDS011;11784;49.818;8.632;2023-06-14T12:34:34;1.20;;;0.80;;
23230;SDS011;11784;49.818;8.632;2023-06-14T12:37:00;1.50;;;0.82;;
23230;SDS011;11784;49.818;8.632;2023-06-14T12:39:26;2.17;;;0.95;;
23230;SDS011;11784;49.818;8.632;2023-06-14T12:41:52;1.65;;;0.70;;
23230;SDS011;11784;49.818;8.632;2023-06-14T12:44:19;2.55;;;0.90;;
23230;SDS011;11784;49.818;8.632;2023-06-14T12:46:44;3.13;;;0.98;;
23230;SDS011;11784;49.818;8.632;2023-06-14T12:49:11;2.13;;;0.80;;
23230;SDS011;11784;49.818;8.632;2023-06-14T12:51:37;2.67;;;1.25;;
23230;SDS011;11784;49.818;8.632;2023-06-14T12:54:03;2.10;;;0.80;;
23230;SDS011;11784;49.818;8.632;2023-06-14T12:56:29;1.63;;;0.80;;
23230;SDS011;11784;49.818;8.632;2023-06-14T12:58:54;1.30;;;0.80;;
23230;SDS011;11784;49.818;8.632;2023-06-14T13:01:20;1.98;;;1.00;;
23230;SDS011;11784;49.818;8.632;2023-06-14T13:03:46;4.15;;;0.93;;
23230;SDS011;11784;49.818;8.632;2023-06-14T13:06:12;1.42;;;0.80;;
23230;SDS011;11784;49.818;8.632;2023-06-14T13:08:38;2.72;;;1.17;;
23230;SDS011;11784;49.818;8.632;2023-06-14T13:11:04;2.22;;;0.70;;
23230;SDS011;11784;49.818;8.632;2023-06-14T13:13:29;1.13;;;0.90;;
23230;SDS011;11784;49.818;8.632;2023-06-14T13:15:55;1.23;;;0.80;;
23230;SDS011;11784;49.818;8.632;2023-06-14T13:18:20;1.50;;;0.90;;
23230;SDS011;11784;49.818;8.632;2023-06-14T13:20:46;1.13;;;0.75;;
23230;SDS011;11784;49.818;8.632;2023-06-14T13:23:12;1.23;;;0.85;;
23230;SDS011;11784;49.818;8.632;2023-06-14T13:25:38;1.15;;;0.73;;
23230;SDS011;11784;49.818;8.632;2023-06-14T13:28:04;1.45;;;1.00;;
23230;SDS011;11784;49.818;8.632;2023-06-14T13:30:30;1.45;;;1.00;;
23230;SDS011;11784;49.818;8.632;2023-06-14T13:32:57;1.73;;;0.85;;
23230;SDS011;11784;49.818;8.632;2023-06-14T13:35:23;2.17;;;1.08;;
23230;SDS011;11784;49.818;8.632;2023-06-14T13:37:49;1.77;;;0.82;;
23230;SDS011;11784;49.818;8.632;2023-06-14T13:40:15;2.65;;;0.88;;
23230;SDS011;11784;49.818;8.632;2023-06-14T13:42:40;1.92;;;0.90;;
23230;SDS011;11784;49.818;8.632;2023-06-14T13:45:06;5.07;;;1.00;;
23230;SDS011;11784;49.818;8.632;2023-06-14T13:47:33;3.22;;;0.90;;
23230;SDS011;11784;49.818;8.632;2023-06-14T13:49:58;2.38;;;0.93;;
23230;SDS011;11784;49.818;8.632;2023-06-14T13:52:24;1.25;;;0.77;;
23230;SDS011;11784;49.818;8.632;2023-06-14T13:54:51;1.70;;;0.82;;
23230;SDS011;11784;49.818;8.632;2023-06-14T13:57:16;1.70;;;0.75;;
23230;SDS011;11784;49.818;8.632;2023-06-14T13:59:42;1.63;;;0.98;;
23230;SDS011;11784;49.818;8.632;2023-06-14T14:02:09;1.13;;;1.00;;
23230;SDS011;11784;49.818;8.632;2023-06-14T14:04:36;1.95;;;0.98;;
23230;SDS011;11784;49.818;8.632;2023-06-14T14:07:06;1.73;;;0.98;;
23230;SDS011;11784;49.818;8.632;2023-06-14T14:09:32;0.73;;;0.60;;
23230;SDS011;11784;49.818;8.632;2023-06-14T14:11:59;1.35;;;0.80;;
23230;SDS011;11784;49.818;8.632;2023-06-14T14:14:24;1.75;;;0.90;;
23230;SDS011;11784;49.818;8.632;2023-06-14T14:16:50;3.15;;;1.10;;
23230;SDS011;11784;49.818;8.632;2023-06-14T14:19:19;2.28;;;0.90;;
23230;SDS011;11784;49.818;8.632;2023-06-14T14:21:46;1.67;;;1.05;;
23230;SDS011;11784;49.818;8.632;2023-06-14T14:24:11;3.03;;;1.58;;
23230;SDS011;11784;49.818;8.632;2023-06-14T14:26:37;1.58;;;0.98;;
23230;SDS011;11784;49.818;8.632;2023-06-14T14:29:03;1.63;;;0.65;;
23230;SDS011;11784;49.818;8.632;2023-06-14T14:31:28;4.07;;;1.15;;
23230;SDS011;11784;49.818;8.632;2023-06-14T14:33:55;1.77;;;0.98;;
23230;SDS011;11784;49.818;8.632;2023-06-14T14:36:21;3.00;;;0.98;;
23230;SDS011;11784;49.818;8.632;2023-06-14T14:38:46;2.33;;;1.00;;
23230;SDS011;11784;49.818;8.632;2023-06-14T14:41:12;2.03;;;0.90;;
23230;SDS011;11784;49.818;8.632;2023-06-14T14:43:38;1.45;;;0.98;;
23230;SDS011;11784;49.818;8.632;2023-06-14T14:46:04;2.60;;;1.17;;
23230;SDS011;11784;49.818;8.632;2023-06-14T14:48:30;0.63;;;0.60;;
23230;SDS011;11784;49.818;8.632;2023-06-14T14:50:55;1.90;;;0.90;;
23230;SDS011;11784;49.818;8.632;2023-06-14T14:53:21;3.60;;;0.85;;
23230;SDS011;11784;49.818;8.632;2023-06-14T14:55:46;1.67;;;0.90;;
23230;SDS011;11784;49.818;8.632;2023-06-14T14:58:13;1.15;;;0.75;;
23230;SDS011;11784;49.818;8.632;2023-06-14T15:00:41;1.98;;;0.65;;
23230;SDS011;11784;49.818;8.632;2023-06-14T15:03:07;1.60;;;0.80;;
23230;SDS011;11784;49.818;8.632;2023-06-14T15:05:33;1.25;;;0.70;;
23230;SDS011;11784;49.818;8.632;2023-06-14T15:07:58;1.48;;;0.85;;